sensor_id;sensor_type;location;lat;lon;timestamp;pressure;altitude;pressure_sealevel;temperature;humidity
70976;BME280;58635;51.198;6.010;2023-05-01T00:01:32;101549.41;;;16.54;45.16
70976;BME280;58635;51.198;6.010;2023-05-01T00:03:57;101541.78;;;16.53;45.14
70976;BME280;58635;51.198;6.010;2023-05-01T00:06:22;101547.22;;;16.51;44.99
70976;BME280;58635;51.198;6.010;2023-05-01T00:08:48;101544.81;;;16.50;45.03
70976;BME280;58635;51.198;6.010;2023-05-01T00:11:13;101537.44;;;16.47;45.04
70976;BME280;58635;51.198;6.010;2023-05-01T00:13:40;101541.06;;;16.46;45.12
70976;BME280;58635;51.198;6.010;2023-05-01T00:16:12;101537.63;;;16.45;45.03
70976;BME280;58635;51.198;6.010;2023-05-01T00:18:38;101529.41;;;16.42;45.16
70976;BME280;58635;51.198;6.010;2023-05-01T00:21:03;101524.63;;;16.38;45.32
70976;BME280;58635;51.198;6.010;2023-05-01T00:23:29;101520.84;;;16.34;45.32
70976;BME280;58635;51.198;6.010;2023-05-01T00:25:54;101519.66;;;16.30;45.39
70976;BME280;58635;51.198;6.010;2023-05-01T00:28:19;101513.88;;;16.28;45.44
70976;BME280;58635;51.198;6.010;2023-05-01T00:30:45;101512.28;;;16.27;45.47
70976;BME280;58635;51.198;6.010;2023-05-01T00:33:11;101514.28;;;16.25;45.52
70976;BME280;58635;51.198;6.010;2023-05-01T00:35:37;101510.31;;;16.23;45.64
70976;BME280;58635;51.198;6.010;2023-05-01T00:38:02;101508.91;;;16.20;45.77
70976;BME280;58635;51.198;6.010;2023-05-01T00:40:27;101504.91;;;16.18;45.74
70976;BME280;58635;51.198;6.010;2023-05-01T00:42:53;101504.31;;;16.16;45.83
70976;BME280;58635;51.198;6.010;2023-05-01T00:45:19;101502.94;;;16.13;45.89
70976;BME280;58635;51.198;6.010;2023-05-01T00:47:45;101503.16;;;16.12;45.91
70976;BME280;58635;51.198;6.010;2023-05-01T00:50:11;101494.94;;;16.08;46.09
70976;BME280;58635;51.198;6.010;2023-05-01T00:52:37;101489.94;;;16.06;46.16
70976;BME280;58635;51.198;6.010;2023-05-01T00:55:04;101482.53;;;16.03;46.25
70976;BME280;58635;51.198;6.010;2023-05-01T00:57:30;101491.59;;;16.01;46.24
70976;BME280;58635;51.198;6.010;2023-05-01T00:59:56;101488.41;;;15.99;46.13
70976;BME280;58635;51.198;6.010;2023-05-01T01:02:22;101485.41;;;15.95;46.33
70976;BME280;58635;51.198;6.010;2023-05-01T01:04:47;101478.00;;;15.92;46.41
70976;BME280;58635;51.198;6.010;2023-05-01T01:07:31;101466.41;;;15.88;46.49
70976;BME280;58635;51.198;6.010;2023-05-01T01:10:26;101459.41;;;15.82;46.52
70976;BME280;58635;51.198;6.010;2023-05-01T01:16:11;101466.50;;;15.75;46.74
70976;BME280;58635;51.198;6.010;2023-05-01T01:18:43;101462.91;;;15.69;47.00
70976;BME280;58635;51.198;6.010;2023-05-01T01:24:05;101447.50;;;15.61;47.08
70976;BME280;58635;51.198;6.010;2023-05-01T01:29:36;101444.69;;;15.56;47.35
70976;BME280;58635;51.198;6.010;2023-05-01T01:34:53;101445.34;;;15.52;47.30
70976;BME280;58635;51.198;6.010;2023-05-01T01:37:24;101441.31;;;15.49;47.50
70976;BME280;58635;51.198;6.010;2023-05-01T01:40:00;101443.13;;;15.48;47.56
70976;BME280;58635;51.198;6.010;2023-05-01T01:42:35;101435.72;;;15.45;47.44
70976;BME280;58635;51.198;6.010;2023-05-01T01:45:09;101427.91;;;15.45;47.45
70976;BME280;58635;51.198;6.010;2023-05-01T01:47:40;101425.53;;;15.44;47.63
70976;BME280;58635;51.198;6.010;2023-05-01T01:50:06;101427.13;;;15.45;47.58
70976;BME280;58635;51.198;6.010;2023-05-01T01:52:36;101415.09;;;15.44;47.54
70976;BME280;58635;51.198;6.010;2023-05-01T01:55:06;101416.91;;;15.43;47.73
70976;BME280;58635;51.198;6.010;2023-05-01T01:57:35;101415.88;;;15.44;47.73
70976;BME280;58635;51.198;6.010;2023-05-01T02:00:04;101411.09;;;15.41;47.75
70976;BME280;58635;51.198;6.010;2023-05-01T02:02:34;101405.88;;;15.41;47.80
70976;BME280;58635;51.198;6.010;2023-05-01T02:05:02;101406.91;;;15.40;47.88
70976;BME280;58635;51.198;6.010;2023-05-01T02:07:29;101406.91;;;15.40;47.86
70976;BME280;58635;51.198;6.010;2023-05-01T02:09:57;101393.06;;;15.40;47.87
70976;BME280;58635;51.198;6.010;2023-05-01T02:12:24;101386.22;;;15.39;47.97
70976;BME280;58635;51.198;6.010;2023-05-01T02:14:52;101392.28;;;15.39;47.88
70976;BME280;58635;51.198;6.010;2023-05-01T02:17:19;101389.84;;;15.38;48.03
70976;BME280;58635;51.198;6.010;2023-05-01T02:19:45;101382.25;;;15.36;48.04
70976;BME280;58635;51.198;6.010;2023-05-01T02:22:11;101384.06;;;15.36;48.09
70976;BME280;58635;51.198;6.010;2023-05-01T02:24:38;101375.44;;;15.35;48.13
70976;BME280;58635;51.198;6.010;2023-05-01T02:27:10;101377.47;;;15.33;48.15
70976;BME280;58635;51.198;6.010;2023-05-01T02:29:36;101377.47;;;15.33;48.12
70976;BME280;58635;51.198;6.010;2023-05-01T02:32:02;101371.66;;;15.31;48.14
70976;BME280;58635;51.198;6.010;2023-05-01T02:34:27;101365.66;;;15.31;48.13
70976;BME280;58635;51.198;6.010;2023-05-01T02:36:53;101362.25;;;15.30;48.12
70976;BME280;58635;51.198;6.010;2023-05-01T02:39:19;101364.84;;;15.30;48.09
70976;BME280;58635;51.198;6.010;2023-05-01T02:41:45;101351.81;;;15.30;48.20
70976;BME280;58635;51.198;6.010;2023-05-01T02:44:13;101352.03;;;15.29;48.01
70976;BME280;58635;51.198;6.010;2023-05-01T02:46:41;101350.22;;;15.29;48.08
70976;BME280;58635;51.198;6.010;2023-05-01T02:49:08;101350.22;;;15.29;48.21
70976;BME280;58635;51.198;6.010;2023-05-01T02:51:35;101351.25;;;15.28;48.08
70976;BME280;58635;51.198;6.010;2023-05-01T02:54:01;101348.81;;;15.27;48.10
70976;BME280;58635;51.198;6.010;2023-05-01T02:56:27;101344.63;;;15.26;48.03
70976;BME280;58635;51.198;6.010;2023-05-01T02:58:53;101342.81;;;15.26;48.04
70976;BME280;58635;51.198;6.010;2023-05-01T03:01:19;101341.22;;;15.25;48.28
70976;BME280;58635;51.198;6.010;2023-05-01T03:03:45;101344.63;;;15.26;48.28
70976;BME280;58635;51.198;6.010;2023-05-01T03:06:10;101344.03;;;15.24;48.28
70976;BME280;58635;51.198;6.010;2023-05-01T03:08:36;101345.84;;;15.23;48.35
70976;BME280;58635;51.198;6.010;2023-05-01T03:11:07;101340.03;;;15.21;48.38
70976;BME280;58635;51.198;6.010;2023-05-01T03:13:33;101343.88;;;15.18;48.43
70976;BME280;58635;51.198;6.010;2023-05-01T03:15:59;101341.69;;;15.15;48.52
70976;BME280;58635;51.198;6.010;2023-05-01T03:18:25;101340.88;;;15.15;48.60
70976;BME280;58635;51.198;6.010;2023-05-01T03:20:51;101336.88;;;15.12;48.70
70976;BME280;58635;51.198;6.010;2023-05-01T03:23:21;101338.09;;;15.10;48.66
70976;BME280;58635;51.198;6.010;2023-05-01T03:25:48;101333.31;;;15.07;48.95
70976;BME280;58635;51.198;6.010;2023-05-01T03:28:14;101331.72;;;15.06;48.97
70976;BME280;58635;51.198;6.010;2023-05-01T03:30:39;101324.31;;;15.03;48.85
70976;BME280;58635;51.198;6.010;2023-05-01T03:33:05;101319.31;;;15.01;49.09
70976;BME280;58635;51.198;6.010;2023-05-01T03:35:30;101316.13;;;14.99;49.10
70976;BME280;58635;51.198;6.010;2023-05-01T03:37:55;101313.94;;;14.96;49.17
70976;BME280;58635;51.198;6.010;2023-05-01T03:40:21;101316.75;;;14.95;49.23
70976;BME280;58635;51.198;6.010;2023-05-01T03:42:46;101316.16;;;14.93;49.37
70976;BME280;58635;51.198;6.010;2023-05-01T03:45:11;101309.56;;;14.90;49.49
70976;BME280;58635;51.198;6.010;2023-05-01T03:47:37;101312.38;;;14.88;49.67
70976;BME280;58635;51.198;6.010;2023-05-01T03:50:03;101309.97;;;14.87;49.67
70976;BME280;58635;51.198;6.010;2023-05-01T03:52:28;101307.38;;;14.87;49.67
70976;BME280;58635;51.198;6.010;2023-05-01T03:54:54;101308.59;;;14.84;49.74
70976;BME280;58635;51.198;6.010;2023-05-01T03:57:19;101311.19;;;14.84;49.70
70976;BME280;58635;51.198;6.010;2023-05-01T03:59:45;101317.41;;;14.83;49.84
70976;BME280;58635;51.198;6.010;2023-05-01T04:02:11;101308.22;;;14.81;50.06
70976;BME280;58635;51.198;6.010;2023-05-01T04:04:37;101305.00;;;14.79;50.15
70976;BME280;58635;51.198;6.010;2023-05-01T04:07:02;101302.59;;;14.77;50.22
70976;BME280;58635;51.198;6.010;2023-05-01T04:09:29;101298.41;;;14.76;50.33
70976;BME280;58635;51.198;6.010;2023-05-01T04:11:54;101296.22;;;14.73;50.20
70976;BME280;58635;51.198;6.010;2023-05-01T04:14:20;101299.63;;;14.74;50.41
70976;BME280;58635;51.198;6.010;2023-05-01T04:16:45;101303.44;;;14.71;50.33
70976;BME280;58635;51.198;6.010;2023-05-01T04:19:11;101295.06;;;14.69;50.28
70976;BME280;58635;51.198;6.010;2023-05-01T04:21:36;101296.25;;;14.67;50.44
70976;BME280;58635;51.198;6.010;2023-05-01T04:24:02;101301.88;;;14.63;50.55
70976;BME280;58635;51.198;6.010;2023-05-01T04:26:27;101300.50;;;14.61;50.80
70976;BME280;58635;51.198;6.010;2023-05-01T04:28:53;101301.50;;;14.60;50.92
70976;BME280;58635;51.198;6.010;2023-05-01T04:31:18;101296.28;;;14.60;50.99
70976;BME280;58635;51.198;6.010;2023-05-01T04:33:44;101297.31;;;14.59;51.04
70976;BME280;58635;51.198;6.010;2023-05-01T04:36:10;101291.31;;;14.58;51.08
70976;BME280;58635;51.198;6.010;2023-05-01T04:38:35;101292.09;;;14.59;50.99
70976;BME280;58635;51.198;6.010;2023-05-01T04:41:01;101293.69;;;14.60;50.83
70976;BME280;58635;51.198;6.010;2023-05-01T04:43:27;101290.88;;;14.61;51.01
70976;BME280;58635;51.198;6.010;2023-05-01T04:45:53;101289.66;;;14.64;51.09
70976;BME280;58635;51.198;6.010;2023-05-01T04:48:18;101286.84;;;14.66;51.09
70976;BME280;58635;51.198;6.010;2023-05-01T04:50:44;101294.25;;;14.69;51.04
70976;BME280;58635;51.198;6.010;2023-05-01T04:53:09;101291.44;;;14.70;51.01
70976;BME280;58635;51.198;6.010;2023-05-01T04:55:35;101284.00;;;14.74;51.17
70976;BME280;58635;51.198;6.010;2023-05-01T04:58:00;101282.78;;;14.76;51.03
70976;BME280;58635;51.198;6.010;2023-05-01T05:00:28;101283.38;;;14.78;51.14
70976;BME280;58635;51.198;6.010;2023-05-01T05:02:53;101287.56;;;14.79;51.12
70976;BME280;58635;51.198;6.010;2023-05-01T05:05:18;101284.16;;;14.79;51.08
70976;BME280;58635;51.198;6.010;2023-05-01T05:07:44;101285.59;;;14.81;51.12
70976;BME280;58635;51.198;6.010;2023-05-01T05:10:09;101283.56;;;14.83;50.98
70976;BME280;58635;51.198;6.010;2023-05-01T05:12:35;101289.34;;;14.85;50.93
70976;BME280;58635;51.198;6.010;2023-05-01T05:15:00;101292.53;;;14.87;50.95
70976;BME280;58635;51.198;6.010;2023-05-01T05:17:26;101287.13;;;14.89;50.90
70976;BME280;58635;51.198;6.010;2023-05-01T05:19:51;101290.13;;;14.93;50.87
70976;BME280;58635;51.198;6.010;2023-05-01T05:22:16;101293.53;;;14.93;50.74
70976;BME280;58635;51.198;6.010;2023-05-01T05:24:42;101296.28;;;14.98;50.66
70976;BME280;58635;51.198;6.010;2023-05-01T05:27:09;101299.28;;;15.02;50.72
70976;BME280;58635;51.198;6.010;2023-05-01T05:29:34;101303.06;;;15.06;50.46
70976;BME280;58635;51.198;6.010;2023-05-01T05:32:00;101304.81;;;15.12;50.47
70976;BME280;58635;51.198;6.010;2023-05-01T05:34:26;101299.00;;;15.16;50.26
70976;BME280;58635;51.198;6.010;2023-05-01T05:36:51;101299.16;;;15.21;50.21
70976;BME280;58635;51.198;6.010;2023-05-01T05:39:17;101303.53;;;15.28;50.39
70976;BME280;58635;51.198;6.010;2023-05-01T05:41:42;101297.47;;;15.34;50.04
70976;BME280;58635;51.198;6.010;2023-05-01T05:44:07;101300.03;;;15.40;49.88
70976;BME280;58635;51.198;6.010;2023-05-01T05:46:33;101289.53;;;15.47;49.74
70976;BME280;58635;51.198;6.010;2023-05-01T05:48:58;101295.50;;;15.54;49.68
70976;BME280;58635;51.198;6.010;2023-05-01T05:51:23;101299.66;;;15.62;49.62
70976;BME280;58635;51.198;6.010;2023-05-01T05:53:49;101300.41;;;15.69;49.53
70976;BME280;58635;51.198;6.010;2023-05-01T05:56:14;101306.38;;;15.76;49.36
70976;BME280;58635;51.198;6.010;2023-05-01T05:58:39;101300.28;;;15.82;49.23
70976;BME280;58635;51.198;6.010;2023-05-01T06:01:05;101305.25;;;15.90;49.03
70976;BME280;58635;51.198;6.010;2023-05-01T06:03:34;101309.59;;;15.96;49.06
70976;BME280;58635;51.198;6.010;2023-05-01T06:06:00;101305.31;;;16.02;48.74
70976;BME280;58635;51.198;6.010;2023-05-01T06:08:26;101300.03;;;16.08;48.76
70976;BME280;58635;51.198;6.010;2023-05-01T06:10:51;101294.75;;;16.15;48.50
70976;BME280;58635;51.198;6.010;2023-05-01T06:13:17;101296.28;;;16.23;48.56
70976;BME280;58635;51.198;6.010;2023-05-01T06:15:42;101296.19;;;16.29;48.26
70976;BME280;58635;51.198;6.010;2023-05-01T06:18:09;101297.34;;;16.33;48.28
70976;BME280;58635;51.198;6.010;2023-05-01T06:20:35;101307.50;;;16.42;48.03
70976;BME280;58635;51.198;6.010;2023-05-01T06:23:01;101296.19;;;16.48;48.18
70976;BME280;58635;51.198;6.010;2023-05-01T06:25:26;101301.31;;;16.54;47.83
70976;BME280;58635;51.198;6.010;2023-05-01T06:27:52;101306.25;;;16.62;47.84
70976;BME280;58635;51.198;6.010;2023-05-01T06:30:17;101305.97;;;16.71;47.93
70976;BME280;58635;51.198;6.010;2023-05-01T06:32:46;101299.63;;;16.78;47.73
70976;BME280;58635;51.198;6.010;2023-05-01T06:35:11;101301.72;;;16.88;47.49
70976;BME280;58635;51.198;6.010;2023-05-01T06:37:37;101290.97;;;16.96;47.45
70976;BME280;58635;51.198;6.010;2023-05-01T06:40:04;101295.84;;;17.04;47.62
70976;BME280;58635;51.198;6.010;2023-05-01T06:42:30;101299.97;;;17.12;47.41
70976;BME280;58635;51.198;6.010;2023-05-01T06:44:55;101299.88;;;17.18;47.11
70976;BME280;58635;51.198;6.010;2023-05-01T06:47:20;101301.34;;;17.26;47.06
70976;BME280;58635;51.198;6.010;2023-05-01T06:49:46;101294.44;;;17.32;47.19
70976;BME280;58635;51.198;6.010;2023-05-01T06:52:11;101292.88;;;17.42;46.81
70976;BME280;58635;51.198;6.010;2023-05-01T06:54:37;101293.13;;;17.52;46.69
70976;BME280;58635;51.198;6.010;2023-05-01T06:57:02;101287.88;;;17.64;46.53
70976;BME280;58635;51.198;6.010;2023-05-01T06:59:28;101288.13;;;17.74;46.59
70976;BME280;58635;51.198;6.010;2023-05-01T07:01:53;101293.34;;;17.86;46.22
70976;BME280;58635;51.198;6.010;2023-05-01T07:04:18;101291.41;;;17.93;46.10
70976;BME280;58635;51.198;6.010;2023-05-01T07:06:44;101294.25;;;18.03;46.15
70976;BME280;58635;51.198;6.010;2023-05-01T07:09:11;101292.09;;;18.12;46.05
70976;BME280;58635;51.198;6.010;2023-05-01T07:11:36;101297.75;;;18.21;45.76
70976;BME280;58635;51.198;6.010;2023-05-01T07:14:02;101291.34;;;18.28;45.75
70976;BME280;58635;51.198;6.010;2023-05-01T07:16:28;101296.69;;;18.33;45.62
70976;BME280;58635;51.198;6.010;2023-05-01T07:18:53;101299.06;;;18.35;45.75
70976;BME280;58635;51.198;6.010;2023-05-01T07:21:18;101295.22;;;18.37;45.73
70976;BME280;58635;51.198;6.010;2023-05-01T07:23:44;101297.28;;;18.35;45.29
70976;BME280;58635;51.198;6.010;2023-05-01T07:26:09;101289.19;;;18.37;45.57
70976;BME280;58635;51.198;6.010;2023-05-01T07:28:35;101288.47;;;18.41;45.81
70976;BME280;58635;51.198;6.010;2023-05-01T07:31:00;101290.72;;;18.50;45.28
70976;BME280;58635;51.198;6.010;2023-05-01T07:33:26;101290.69;;;18.61;45.43
70976;BME280;58635;51.198;6.010;2023-05-01T07:35:52;101296.94;;;18.72;45.41
70976;BME280;58635;51.198;6.010;2023-05-01T07:38:17;101294.97;;;18.79;45.34
70976;BME280;58635;51.198;6.010;2023-05-01T07:40:43;101298.25;;;18.86;45.23
70976;BME280;58635;51.198;6.010;2023-05-01T07:43:08;101293.41;;;18.95;45.03
70976;BME280;58635;51.198;6.010;2023-05-01T07:45:38;101287.53;;;19.05;44.49
70976;BME280;58635;51.198;6.010;2023-05-01T07:48:04;101283.81;;;19.17;44.32
70976;BME280;58635;51.198;6.010;2023-05-01T07:50:30;101282.72;;;19.30;44.34
70976;BME280;58635;51.198;6.010;2023-05-01T07:52:55;101290.25;;;19.43;44.08
70976;BME280;58635;51.198;6.010;2023-05-01T07:55:22;101287.88;;;19.59;43.64
70976;BME280;58635;51.198;6.010;2023-05-01T07:57:47;101291.19;;;19.71;43.50
70976;BME280;58635;51.198;6.010;2023-05-01T08:00:13;101282.13;;;19.78;43.43
70976;BME280;58635;51.198;6.010;2023-05-01T08:02:39;101284.31;;;19.86;43.13
70976;BME280;58635;51.198;6.010;2023-05-01T08:05:05;101288.13;;;19.96;42.98
70976;BME280;58635;51.198;6.010;2023-05-01T08:07:31;101289.84;;;20.07;42.73
70976;BME280;58635;51.198;6.010;2023-05-01T08:09:56;101291.81;;;20.17;42.76
70976;BME280;58635;51.198;6.010;2023-05-01T08:12:21;101294.00;;;20.25;42.18
70976;BME280;58635;51.198;6.010;2023-05-01T08:14:47;101294.09;;;20.35;42.14
70976;BME280;58635;51.198;6.010;2023-05-01T08:17:12;101292.16;;;20.47;42.01
70976;BME280;58635;51.198;6.010;2023-05-01T08:19:38;101286.22;;;20.57;42.01
70976;BME280;58635;51.198;6.010;2023-05-01T08:22:03;101288.94;;;20.62;41.79
70976;BME280;58635;51.198;6.010;2023-05-01T08:24:28;101282.91;;;20.66;41.75
70976;BME280;58635;51.198;6.010;2023-05-01T08:26:54;101280.91;;;20.73;41.78
70976;BME280;58635;51.198;6.010;2023-05-01T08:29:20;101288.06;;;20.83;41.65
70976;BME280;58635;51.198;6.010;2023-05-01T08:31:45;101280.56;;;20.97;41.43
70976;BME280;58635;51.198;6.010;2023-05-01T08:34:11;101281.22;;;21.09;41.43
70976;BME280;58635;51.198;6.010;2023-05-01T08:36:36;101282.38;;;21.23;41.01
70976;BME280;58635;51.198;6.010;2023-05-01T08:39:02;101273.56;;;21.40;40.84
70976;BME280;58635;51.198;6.010;2023-05-01T08:41:29;101283.09;;;21.51;40.43
70976;BME280;58635;51.198;6.010;2023-05-01T08:43:56;101278.94;;;21.55;40.42
70976;BME280;58635;51.198;6.010;2023-05-01T08:46:46;101282.63;;;21.59;40.31
70976;BME280;58635;51.198;6.010;2023-05-01T08:49:15;101287.38;;;21.62;40.34
70976;BME280;58635;51.198;6.010;2023-05-01T08:51:44;101276.59;;;21.64;40.32
70976;BME280;58635;51.198;6.010;2023-05-01T08:54:11;101277.38;;;21.64;40.28
70976;BME280;58635;51.198;6.010;2023-05-01T08:56:38;101284.78;;;21.67;40.20
70976;BME280;58635;51.198;6.010;2023-05-01T08:59:04;101282.69;;;21.69;40.21
70976;BME280;58635;51.198;6.010;2023-05-01T09:01:32;101279.00;;;21.70;40.27
70976;BME280;58635;51.198;6.010;2023-05-01T09:04:01;101278.75;;;21.72;40.03
70976;BME280;58635;51.198;6.010;2023-05-01T09:06:27;101277.97;;;21.71;40.03
70976;BME280;58635;51.198;6.010;2023-05-01T09:08:53;101279.28;;;21.74;40.13
70976;BME280;58635;51.198;6.010;2023-05-01T09:11:20;101282.44;;;21.76;40.25
70976;BME280;58635;51.198;6.010;2023-05-01T09:13:46;101281.97;;;21.79;40.31
70976;BME280;58635;51.198;6.010;2023-05-01T09:16:12;101286.44;;;21.83;40.46
70976;BME280;58635;51.198;6.010;2023-05-01T09:18:38;101276.19;;;21.87;40.11
70976;BME280;58635;51.198;6.010;2023-05-01T09:21:05;101279.34;;;21.89;40.02
70976;BME280;58635;51.198;6.010;2023-05-01T09:23:30;101286.47;;;21.88;39.82
70976;BME280;58635;51.198;6.010;2023-05-01T09:25:58;101278.81;;;21.87;39.96
70976;BME280;58635;51.198;6.010;2023-05-01T09:28:43;101280.16;;;21.89;39.90
70976;BME280;58635;51.198;6.010;2023-05-01T09:31:25;101280.94;;;21.90;39.98
70976;BME280;58635;51.198;6.010;2023-05-01T09:36:18;101277.28;;;21.96;39.84
70976;BME280;58635;51.198;6.010;2023-05-01T09:38:44;101273.09;;;22.00;39.88
70976;BME280;58635;51.198;6.010;2023-05-01T09:41:09;101281.84;;;22.06;39.85
70976;BME280;58635;51.198;6.010;2023-05-01T09:43:35;101276.31;;;22.12;39.77
70976;BME280;58635;51.198;6.010;2023-05-01T09:46:07;101276.63;;;22.21;39.64
70976;BME280;58635;51.198;6.010;2023-05-01T09:48:34;101275.03;;;22.25;39.71
70976;BME280;58635;51.198;6.010;2023-05-01T09:51:00;101274.03;;;22.31;39.74
70976;BME280;58635;51.198;6.010;2023-05-01T09:53:36;101270.59;;;22.36;39.29
70976;BME280;58635;51.198;6.010;2023-05-01T09:56:02;101280.09;;;22.37;39.42
70976;BME280;58635;51.198;6.010;2023-05-01T09:58:27;101279.81;;;22.33;39.39
70976;BME280;58635;51.198;6.010;2023-05-01T10:00:53;101277.72;;;22.30;39.61
70976;BME280;58635;51.198;6.010;2023-05-01T10:03:18;101284.56;;;22.26;39.37
70976;BME280;58635;51.198;6.010;2023-05-01T10:05:44;101294.00;;;22.22;39.60
70976;BME280;58635;51.198;6.010;2023-05-01T10:08:09;101291.63;;;22.21;39.53
70976;BME280;58635;51.198;6.010;2023-05-01T10:10:39;101299.03;;;22.18;39.78
70976;BME280;58635;51.198;6.010;2023-05-01T10:13:13;101293.72;;;22.13;39.46
70976;BME280;58635;51.198;6.010;2023-05-01T10:15:38;101290.78;;;22.05;39.72
70976;BME280;58635;51.198;6.010;2023-05-01T10:18:04;101285.47;;;22.00;39.89
70976;BME280;58635;51.198;6.010;2023-05-01T10:20:31;101287.28;;;21.94;39.95
70976;BME280;58635;51.198;6.010;2023-05-01T10:22:58;101286.47;;;21.88;39.92
70976;BME280;58635;51.198;6.010;2023-05-01T10:25:24;101283.03;;;21.88;40.05
70976;BME280;58635;51.198;6.010;2023-05-01T10:27:51;101284.63;;;21.89;39.76
70976;BME280;58635;51.198;6.010;2023-05-01T10:30:18;101289.94;;;21.94;39.88
70976;BME280;58635;51.198;6.010;2023-05-01T10:32:44;101286.00;;;22.02;39.61
70976;BME280;58635;51.198;6.010;2023-05-01T10:35:14;101292.16;;;22.17;39.17
70976;BME280;58635;51.198;6.010;2023-05-01T10:37:46;101279.81;;;22.33;39.31
70976;BME280;58635;51.198;6.010;2023-05-01T10:40:46;101281.19;;;22.56;38.86
70976;BME280;58635;51.198;6.010;2023-05-01T10:43:23;101280.44;;;22.76;38.59
70976;BME280;58635;51.198;6.010;2023-05-01T10:45:51;101281.28;;;22.92;38.19
70976;BME280;58635;51.198;6.010;2023-05-01T10:51:10;101280.22;;;23.23;38.13
70976;BME280;58635;51.198;6.010;2023-05-01T10:53:37;101276.22;;;23.31;37.95
70976;BME280;58635;51.198;6.010;2023-05-01T10:56:03;101284.41;;;23.40;37.86
70976;BME280;58635;51.198;6.010;2023-05-01T11:01:26;101277.03;;;23.37;37.75
70976;BME280;58635;51.198;6.010;2023-05-01T11:03:52;101276.75;;;23.38;37.71
70976;BME280;58635;51.198;6.010;2023-05-01T11:06:17;101282.28;;;23.42;37.82
70976;BME280;58635;51.198;6.010;2023-05-01T11:08:43;101278.31;;;23.49;37.79
70976;BME280;58635;51.198;6.010;2023-05-01T11:14:03;101276.72;;;23.74;37.65
70976;BME280;58635;51.198;6.010;2023-05-01T11:21:36;101272.31;;;24.13;37.12
70976;BME280;58635;51.198;6.010;2023-05-01T11:24:03;101270.13;;;24.26;37.01
70976;BME280;58635;51.198;6.010;2023-05-01T11:26:29;101277.44;;;24.49;37.35
70976;BME280;58635;51.198;6.010;2023-05-01T11:28:59;101263.50;;;24.77;36.60
70976;BME280;58635;51.198;6.010;2023-05-01T11:31:26;101267.75;;;25.07;36.43
70976;BME280;58635;51.198;6.010;2023-05-01T11:33:55;101264.66;;;25.29;36.04
70976;BME280;58635;51.198;6.010;2023-05-01T11:36:21;101261.44;;;25.56;35.62
70976;BME280;58635;51.198;6.010;2023-05-01T11:38:53;101258.59;;;25.77;35.36
70976;BME280;58635;51.198;6.010;2023-05-01T11:41:21;101252.06;;;25.93;34.97
70976;BME280;58635;51.198;6.010;2023-05-01T11:43:54;101252.56;;;26.14;34.80
70976;BME280;58635;51.198;6.010;2023-05-01T11:46:29;101248.50;;;26.21;34.61
70976;BME280;58635;51.198;6.010;2023-05-01T11:48:58;101248.53;;;26.16;34.34
70976;BME280;58635;51.198;6.010;2023-05-01T11:51:24;101245.53;;;26.04;34.15
70976;BME280;58635;51.198;6.010;2023-05-01T11:54:07;101235.00;;;25.99;34.38
70976;BME280;58635;51.198;6.010;2023-05-01T11:56:34;101244.56;;;26.19;34.32
70976;BME280;58635;51.198;6.010;2023-05-01T11:59:16;101233.44;;;26.55;34.11
70976;BME280;58635;51.198;6.010;2023-05-01T12:01:44;101236.09;;;26.87;33.50
70976;BME280;58635;51.198;6.010;2023-05-01T12:04:10;101226.53;;;27.05;32.97
70976;BME280;58635;51.198;6.010;2023-05-01T12:06:38;101229.00;;;27.15;32.91
70976;BME280;58635;51.198;6.010;2023-05-01T12:09:25;101226.47;;;27.24;32.75
70976;BME280;58635;51.198;6.010;2023-05-01T12:11:53;101229.78;;;27.16;32.78
70976;BME280;58635;51.198;6.010;2023-05-01T12:14:19;101222.31;;;27.04;32.84
70976;BME280;58635;51.198;6.010;2023-05-01T12:16:48;101219.09;;;26.88;32.84
70976;BME280;58635;51.198;6.010;2023-05-01T12:19:14;101226.22;;;26.74;32.70
70976;BME280;58635;51.198;6.010;2023-05-01T12:21:40;101214.59;;;26.56;33.27
70976;BME280;58635;51.198;6.010;2023-05-01T12:24:13;101210.56;;;26.40;33.40
70976;BME280;58635;51.198;6.010;2023-05-01T12:26:40;101215.78;;;26.26;33.67
70976;BME280;58635;51.198;6.010;2023-05-01T12:29:06;101216.53;;;26.13;33.90
70976;BME280;58635;51.198;6.010;2023-05-01T12:31:33;101217.03;;;25.96;33.92
70976;BME280;58635;51.198;6.010;2023-05-01T12:34:00;101215.63;;;25.80;34.56
70976;BME280;58635;51.198;6.010;2023-05-01T12:36:29;101216.09;;;25.63;34.67
70976;BME280;58635;51.198;6.010;2023-05-01T12:39:09;101223.94;;;25.49;35.41
70976;BME280;58635;51.198;6.010;2023-05-01T12:41:40;101224.44;;;25.27;35.33
70976;BME280;58635;51.198;6.010;2023-05-01T12:44:19;101228.31;;;25.11;36.07
70976;BME280;58635;51.198;6.010;2023-05-01T12:46:52;101234.53;;;24.91;35.93
70976;BME280;58635;51.198;6.010;2023-05-01T12:49:22;101238.63;;;24.78;34.79
70976;BME280;58635;51.198;6.010;2023-05-01T12:51:48;101243.75;;;24.65;34.95
70976;BME280;58635;51.198;6.010;2023-05-01T12:54:19;101231.66;;;24.54;34.44
70976;BME280;58635;51.198;6.010;2023-05-01T12:56:44;101249.97;;;24.45;35.01
70976;BME280;58635;51.198;6.010;2023-05-01T12:59:25;101256.63;;;24.37;35.06
70976;BME280;58635;51.198;6.010;2023-05-01T13:04:23;101253.53;;;24.20;36.82
70976;BME280;58635;51.198;6.010;2023-05-01T13:06:51;101254.34;;;24.15;37.73
70976;BME280;58635;51.198;6.010;2023-05-01T13:09:17;101256.22;;;24.10;37.52
70976;BME280;58635;51.198;6.010;2023-05-01T13:11:58;101250.19;;;24.04;37.81
70976;BME280;58635;51.198;6.010;2023-05-01T13:14:24;101258.63;;;24.01;37.19
70976;BME280;58635;51.198;6.010;2023-05-01T13:16:50;101261.81;;;23.98;36.87
70976;BME280;58635;51.198;6.010;2023-05-01T13:19:26;101260.78;;;23.94;36.86
70976;BME280;58635;51.198;6.010;2023-05-01T13:21:53;101268.22;;;23.82;36.73